Terminal Aerodrome Forecast
Issued by NWS

Home | Current Version | Previous Version | Text Only | Print | Product List | Glossary On
Versions: 1 2 3 4 5 6 7 8 9 10 11 12 13 14 15 16 17 18 19 20 21 22 23 24
000
FTUS45 KABQ 020535
TAFLVS
TAF
KLVS 020535Z 0206/0306 VRB06KT P6SM SCT015 OVC025
      TEMPO 0206/0208 4SM BR OVC012
     FM020800 01005KT 1/2SM FZFG OVC002
     FM021600 21006KT 6SM BR SCT012 OVC025
     FM021800 22010KT P6SM SCT035 BKN070=

USA.gov is the U.S. government's official web portal to all federal, state and local government web resources and services.